CDT,Max TemperatureF,Mean TemperatureF,Min TemperatureF,Max Dew PointF,MeanDew PointF,Min DewpointF,Max Humidity, Mean Humidity, Min Humidity, Max Sea Level PressureIn, Mean Sea Level PressureIn, Min Sea Level PressureIn, Max VisibilityMiles, Mean VisibilityMiles, Min VisibilityMiles, Max Wind SpeedMPH, Mean Wind SpeedMPH, Max Gust SpeedMPH,PrecipitationIn, CloudCover, Events, WindDirDegrees
2013-3-1,37,34,30,32,30,28,100,89,75,30.01,29.99,29.96,10,8,2,8,3,,0.00,7,,299
2013-3-2,32,29,26,30,28,25,100,93,80,30.09,30.03,29.97,10,8,1,9,5,,0.00,7,,332
2013-3-3,35,27,19,25,21,18,100,79,52,30.11,30.08,30.07,10,9,2,9,5,,0.00,4,,335
2013-3-4,53,35,17,32,26,18,100,64,41,30.14,30.04,29.91,10,10,10,12,3,,0.00,2,,166
2013-3-5,53,40,28,54,41,25,100,88,50,29.94,29.83,29.65,10,8,2,24,9,33,0.00,7,,228
2013-3-6,33,30,28,28,26,25,93,86,75,30.27,30.13,29.93,10,9,4,15,9,,0.00,7,,324
2013-3-7,33,30,28,28,27,25,93,87,75,30.36,30.32,30.26,10,10,10,9,5,,0.00,8,,39
2013-3-8,53,37,21,34,27,21,100,73,35,30.38,30.32,30.26,10,10,5,8,2,,0.00,0,,32
2013-3-9,62,45,28,36,32,28,100,59,36,30.26,30.18,30.08,10,10,10,10,4,,0.00,0,,171
2013-3-10,66,58,50,37,34,32,54,39,32,30.08,30.02,29.89,10,10,10,17,10,26,0.00,0,,177
2013-3-11,39,38,37,36,33,30,87,81,75,29.95,29.94,29.92,10,10,10,7,6,,0.00,8,,313
2013-3-12,50,40,30,34,30,27,100,69,47,30.13,30.05,29.95,10,10,10,13,5,,0.00,3,,316
2013-3-13,39,32,24,32,23,18,100,69,49,30.36,30.24,30.10,10,10,10,16,4,21,0.00,3,,323
2013-3-14,46,32,17,34,22,16,100,71,34,30.40,30.33,30.23,10,10,10,8,2,,0.00,1,,204
2013-3-15,71,50,30,46,39,28,93,62,40,30.22,30.02,29.89,10,10,10,14,6,,0.00,0,,216
2013-3-16,73,62,51,54,48,43,72,60,46,29.93,29.87,29.82,10,10,10,16,9,,0.00,3,,242
2013-3-17,68,57,46,54,48,45,93,76,56,29.97,29.90,29.85,10,10,10,9,3,,0.00,3,,1
2013-3-18,62,54,44,57,53,39,100,87,72,29.96,29.80,29.74,10,9,1,20,9,23,0.00,6,,208
2013-3-19,51,40,30,39,27,14,100,61,22,30.16,30.10,29.98,10,9,0,14,4,,0.00,0,,338
2013-3-20,51,38,24,32,24,16,93,61,28,30.15,30.07,29.95,10,10,10,17,3,21,0.00,1,,331
2013-3-21,37,27,17,21,15,10,93,57,41,30.04,30.00,29.96,10,10,10,12,5,,0.00,0,,338
2013-3-22,44,34,24,30,22,16,86,56,37,30.04,30.00,29.97,10,10,10,7,1,,0.00,5,,150
2013-3-23,53,46,39,45,41,28,100,83,57,29.99,29.90,29.75,10,9,1,12,2,,0.00,7,,81
2013-3-24,60,46,33,55,45,25,100,89,65,29.76,29.56,29.33,10,8,2,20,6,37,0.00,7,,232
2013-3-25,35,32,30,28,26,25,93,81,65,30.06,29.86,29.68,10,8,1,16,10,25,0.00,7,,282
2013-3-26,37,32,28,28,27,25,100,82,65,30.31,30.18,30.06,10,10,7,14,6,,0.00,6,,313
2013-3-27,48,36,23,28,25,21,100,70,43,30.37,30.31,30.29,10,10,10,10,2,,0.00,1,,331
2013-3-28,55,38,21,34,28,21,100,72,38,30.37,30.31,30.27,10,10,10,9,1,,0.00,0,,333
2013-3-29,46,39,32,46,40,30,100,94,81,30.35,30.27,30.20,10,8,4,7,1,,0.00,6,,117
2013-3-30,62,50,37,54,46,37,100,87,55,30.21,30.10,29.94,10,6,0,12,1,,0.00,5,,174
2013-3-31,55,48,41,55,52,41,100,98,93,29.93,29.91,29.87,10,7,0,10,4,,0.00,8,,241